グアム の空港の天気 - METARとTAF

グアム国際空港 ( PGUM / GUM ) - グアム ハガニア
飛行場実況気象(Metar)
観測時間06/21 14:08 ChST (06/21 04:08 UTC)
風向・風速東北東 5m/s 瞬間風速10m/s
視程8050m
天気現象弱い雨 もや
全天の4割程度の雲 雲底高度 610m
全天の4割程度の雲 雲底高度 880m
全天の8割程度の雲 雲底高度 1340m
気温28.9℃
湿度88%
気圧1013hPa
METARPGUM 210408Z 07009G19KT 5SM -RA BR SCT020 SCT029 BKN044 29/27 A2991 RMK AO2 RAB01 P0000 T02890267
過去の天気等 Google飛行場航空写真 Wunderground天気予報

過去48時間のMETAR

飛行場予報(TAF)
発表時間: 6/21 09:30 ChST (6/20 23:30 UTC)
予報対象時間: 21日10時 ChST ~ 22日16時 ChST
風向・風速東 6m/s 瞬間風速 10m/s
視程10km以上
天気現象周辺でしゅう雨
全天の4割程度の雲 雲底高度 610m
全天の4割程度の雲 雲底高度 1520m
21日19時 ChST から
風向・風速東 4m/s
視程10km以上
天気現象周辺でしゅう雨
少しの雲 雲底高度 610m
全天の4割程度の雲 雲底高度 1520m
PGUM 202330Z 2100/2206 09012G20KT P6SM VCSH SCT020 SCT050
FM210900 09008KT P6SM VCSH FEW020 SCT050